createdAt,value
2019-02-10T03:08:16.869Z,41.4
2019-02-10T03:09:06.082Z,41.4
2019-02-10T03:09:56.922Z,41.4
2019-02-10T03:10:46.833Z,41.4
2019-02-10T03:11:37.081Z,41.4
2019-02-10T03:12:27.103Z,41.4
2019-02-10T03:13:17.117Z,41.4
2019-02-10T03:14:06.954Z,41.4
2019-02-10T03:14:57.553Z,41.4
2019-02-10T03:15:47.374Z,41.4
2019-02-10T03:16:37.633Z,41.4
2019-02-10T03:17:27.187Z,41.4
2019-02-10T03:18:17.657Z,41.4
2019-02-10T03:19:07.554Z,41.5
2019-02-10T03:19:57.678Z,41.5
2019-02-10T03:20:47.937Z,41.5
2019-02-10T03:21:37.724Z,41.5
2019-02-10T03:22:27.819Z,41.5
2019-02-10T03:23:17.552Z,41.6
2019-02-10T03:24:08.214Z,41.6
2019-02-10T03:24:57.699Z,41.6
2019-02-10T03:25:47.550Z,41.6
2019-02-10T03:26:38.346Z,41.6
2019-02-10T03:27:27.843Z,41.6
2019-02-10T03:28:18.425Z,41.6
2019-02-10T03:29:07.948Z,41.6
2019-02-10T03:29:58.304Z,41.6
2019-02-10T03:30:48.760Z,41.6
2019-02-10T03:31:38.994Z,41.6
2019-02-10T03:32:28.365Z,41.5
2019-02-10T03:33:18.789Z,41.5
2019-02-10T03:34:08.984Z,41.5
2019-02-10T03:34:58.624Z,41.5
2019-02-10T03:35:48.104Z,41.5
2019-02-10T03:36:38.735Z,41.5
2019-02-10T03:37:33.018Z,41.5
2019-02-10T03:38:18.397Z,41.5
2019-02-10T03:39:08.603Z,41.5
2019-02-10T03:39:59.264Z,41.5
2019-02-10T03:40:48.733Z,41.5
2019-02-10T03:41:39.362Z,41.5
2019-02-10T03:42:29.160Z,41.5
2019-02-10T03:43:19.195Z,41.5
2019-02-10T03:44:08.994Z,41.5
2019-02-10T03:44:59.031Z,41.5
2019-02-10T03:45:49.078Z,41.4
2019-02-10T03:46:39.423Z,41.4
2019-02-10T03:47:29.860Z,41.4
2019-02-10T03:48:19.820Z,41.4
2019-02-10T03:49:09.029Z,41.4
2019-02-10T03:49:59.147Z,41.4
2019-02-10T03:50:49.697Z,41.4
2019-02-10T03:51:39.803Z,41.4
2019-02-10T03:52:29.352Z,41.4
2019-02-10T03:53:20.152Z,41.4
2019-02-10T03:54:09.438Z,41.4
2019-02-10T03:54:59.693Z,41.4
2019-02-10T03:55:50.150Z,41.4
2019-02-10T03:56:39.595Z,41.4
2019-02-10T03:57:30.434Z,41.4
2019-02-10T03:58:20.237Z,41.4
2019-02-10T03:59:10.347Z,41.4
2019-02-10T04:00:00.349Z,41.4
2019-02-10T04:00:50.134Z,41.4
2019-02-10T04:01:40.718Z,41.4
2019-02-10T04:02:29.974Z,41.4
2019-02-10T04:03:20.615Z,41.4
2019-02-10T04:04:10.426Z,41.4
2019-02-10T04:05:00.822Z,41.4
2019-02-10T04:05:50.756Z,41.4
2019-02-10T04:06:40.226Z,41.4
2019-02-10T04:07:40.285Z,41.4
2019-02-10T04:08:20.621Z,41.4
2019-02-10T04:09:11.261Z,41.3
2019-02-10T04:10:01.026Z,41.3
2019-02-10T04:10:51.147Z,41.3
2019-02-10T04:11:40.574Z,41.4
2019-02-10T04:12:31.186Z,41.3
2019-02-10T04:13:21.556Z,41.3
2019-02-10T04:14:11.366Z,41.3
2019-02-10T04:15:00.679Z,41.3
2019-02-10T04:15:50.840Z,41.3
2019-02-10T04:16:41.823Z,41.3
2019-02-10T04:17:31.826Z,41.3
2019-02-10T04:18:21.669Z,41.3
2019-02-10T04:19:11.638Z,41.3
2019-02-10T04:20:01.845Z,41.3
2019-02-10T04:20:51.735Z,41.3
2019-02-10T04:21:41.813Z,41.3
2019-02-10T04:22:32.228Z,41.3
2019-02-10T04:23:21.955Z,41.3
2019-02-10T04:24:11.742Z,41.3
2019-02-10T04:25:02.338Z,41.3
2019-02-10T04:25:51.878Z,41.3
2019-02-10T04:26:42.233Z,41.3
2019-02-10T04:27:32.204Z,41.3
2019-02-10T04:28:21.768Z,41.3
2019-02-10T04:29:12.340Z,41.3
2019-02-10T04:30:02.720Z,41.2
2019-02-10T04:30:52.455Z,41.3
2019-02-10T04:31:42.782Z,41.3
2019-02-10T04:32:32.863Z,41.3
2019-02-10T04:33:22.915Z,41.2
2019-02-10T04:34:13.063Z,41.3
2019-02-10T04:35:02.250Z,41.2
2019-02-10T04:35:52.803Z,41.2
2019-02-10T04:36:42.547Z,41.2
2019-02-10T04:37:32.662Z,41.2
2019-02-10T04:38:22.653Z,41.2
2019-02-10T04:39:13.032Z,41.1
2019-02-10T04:40:03.369Z,41.2
2019-02-10T04:40:53.117Z,41.1
2019-02-10T04:41:42.684Z,41.1
2019-02-10T04:42:32.696Z,41.1
2019-02-10T04:43:23.001Z,41.1
2019-02-10T04:44:12.799Z,41.1
2019-02-10T04:45:03.592Z,41.1
2019-02-10T04:45:53.245Z,41.1
2019-02-10T04:46:42.687Z,41.1
2019-02-10T04:47:33.595Z,41.1
2019-02-10T04:48:23.106Z,41.1
2019-02-10T04:49:13.706Z,41.1
2019-02-10T04:50:03.250Z,41.1
2019-02-10T04:50:53.822Z,41.1
2019-02-10T04:51:43.906Z,41.1
2019-02-10T04:52:33.692Z,41.1
2019-02-10T04:53:24.294Z,41.1
2019-02-10T04:54:14.043Z,41.1
2019-02-10T04:55:04.024Z,41.1
2019-02-10T04:55:54.464Z,41.1
2019-02-10T04:56:44.238Z,41.1
2019-02-10T04:57:34.296Z,41.1
2019-02-10T04:58:24.063Z,41.1
2019-02-10T04:59:14.401Z,41.1
2019-02-10T05:00:04.448Z,41.1
2019-02-10T05:00:54.778Z,41.1
2019-02-10T05:01:44.568Z,41
2019-02-10T05:02:34.670Z,41
2019-02-10T05:03:24.116Z,41
2019-02-10T05:04:14.195Z,41
2019-02-10T05:05:04.865Z,41
2019-02-10T05:05:54.871Z,41
2019-02-10T05:06:45.013Z,41
2019-02-10T05:07:34.982Z,41
2019-02-10T05:08:25.273Z,41
2019-02-10T05:09:15.087Z,41
2019-02-10T05:10:05.005Z,41
2019-02-10T05:10:55.300Z,41
2019-02-10T05:11:45.561Z,40.9
2019-02-10T05:12:35.318Z,40.9
2019-02-10T05:13:25.091Z,40.9
2019-02-10T05:14:14.599Z,40.9
2019-02-10T05:15:05.186Z,40.9
2019-02-10T05:15:55.580Z,40.9
2019-02-10T05:16:47.931Z,40.9
2019-02-10T05:17:35.659Z,40.9
2019-02-10T05:18:25.697Z,40.9
2019-02-10T05:19:15.537Z,40.9
2019-02-10T05:20:05.937Z,40.9
2019-02-10T05:20:55.607Z,40.9
2019-02-10T05:21:45.413Z,40.9
2019-02-10T05:22:35.997Z,40.9
2019-02-10T05:23:25.788Z,40.9
2019-02-10T05:24:16.491Z,40.9
2019-02-10T05:25:06.487Z,40.9
2019-02-10T05:25:56.522Z,40.9
2019-02-10T05:26:46.007Z,40.9
2019-02-10T05:27:36.650Z,40.9
2019-02-10T05:28:26.415Z,40.9
2019-02-10T05:29:16.214Z,40.9
2019-02-10T05:30:06.061Z,40.9
2019-02-10T05:30:56.614Z,40.9
2019-02-10T05:31:46.459Z,40.8
2019-02-10T05:32:36.458Z,40.9
2019-02-10T05:33:26.608Z,40.8
2019-02-10T05:34:17.127Z,40.8
2019-02-10T05:35:06.964Z,40.8
2019-02-10T05:35:56.934Z,40.8
2019-02-10T05:36:46.484Z,40.8
2019-02-10T05:37:37.350Z,40.8
2019-02-10T05:38:27.350Z,40.8
2019-02-10T05:39:17.460Z,40.8
2019-02-10T05:40:06.954Z,40.8
2019-02-10T05:40:57.256Z,40.8
2019-02-10T05:41:47.616Z,40.8
2019-02-10T05:42:37.431Z,40.8
2019-02-10T05:43:27.721Z,40.8
2019-02-10T05:44:17.842Z,40.8
2019-02-10T05:45:07.853Z,40.8
2019-02-10T05:45:57.384Z,40.8
2019-02-10T05:46:47.659Z,40.8
2019-02-10T05:47:37.495Z,40.8
2019-02-10T05:48:27.522Z,40.8
2019-02-10T05:49:17.312Z,40.7
2019-02-10T05:50:07.895Z,40.7
2019-02-10T05:50:57.689Z,40.7
2019-02-10T05:51:47.505Z,40.7
2019-02-10T05:52:38.364Z,40.7
2019-02-10T05:53:28.098Z,40.7
2019-02-10T05:54:18.172Z,40.7
2019-02-10T05:55:08.320Z,40.7
2019-02-10T05:55:58.585Z,40.7
2019-02-10T05:56:48.363Z,40.7
2019-02-10T05:57:38.678Z,40.7
2019-02-10T05:58:27.628Z,40.7
2019-02-10T05:59:18.522Z,40.7
2019-02-10T06:00:08.656Z,40.6
2019-02-10T06:00:58.131Z,40.7
2019-02-10T06:01:48.664Z,40.6
2019-02-10T06:02:38.997Z,40.6
2019-02-10T06:03:28.846Z,40.6
2019-02-10T06:04:19.167Z,40.6
2019-02-10T06:06:16.837Z,40.6
2019-02-10T06:07:06.544Z,40.6
2019-02-10T06:07:56.604Z,40.6
2019-02-10T06:08:46.557Z,40.6
2019-02-10T06:09:36.036Z,40.6
2019-02-10T06:10:27.290Z,40.6
2019-02-10T06:11:16.835Z,40.6
2019-02-10T06:12:06.954Z,40.6
2019-02-10T06:12:57.181Z,40.6
2019-02-10T06:13:47.072Z,40.5
2019-02-10T06:14:37.412Z,40.6
2019-02-10T06:15:27.508Z,40.6
2019-02-10T06:16:17.241Z,40.5
2019-02-10T06:17:07.480Z,40.5
2019-02-10T06:17:57.583Z,40.5
2019-02-10T06:18:47.409Z,40.5
2019-02-10T06:19:37.629Z,40.5
2019-02-10T06:20:27.740Z,40.5
2019-02-10T06:21:18.705Z,40.5
2019-02-10T06:22:22.013Z,40.5
2019-02-10T06:22:57.595Z,40.4
2019-02-10T06:23:47.196Z,40.4
2019-02-10T06:24:37.579Z,40.4
2019-02-10T06:25:27.890Z,40.4
2019-02-10T06:26:17.926Z,40.4
2019-02-10T06:27:07.737Z,40.4
2019-02-10T06:27:58.329Z,40.4
2019-02-10T06:28:47.008Z,40.4
2019-02-10T06:29:37.616Z,40.4
2019-02-10T06:30:27.939Z,40.4
2019-02-10T06:31:18.013Z,40.4
2019-02-10T06:32:08.096Z,40.4
2019-02-10T06:32:58.095Z,40.4
2019-02-10T06:33:48.417Z,40.4
2019-02-10T06:34:37.656Z,40.4
2019-02-10T06:35:27.825Z,40.3
2019-02-10T06:36:20.401Z,40.4
2019-02-10T06:37:07.941Z,40.3
2019-02-10T06:37:57.645Z,40.3
2019-02-10T06:38:48.272Z,40.3
2019-02-10T06:39:39.192Z,40.3
2019-02-10T06:40:28.111Z,40.3
2019-02-10T06:41:19.217Z,40.3
2019-02-10T06:42:08.735Z,40.3
2019-02-10T06:42:58.239Z,40.3
2019-02-10T06:43:49.097Z,40.3
2019-02-10T06:44:38.338Z,40.3
2019-02-10T06:45:29.217Z,40.3
2019-02-10T06:46:18.917Z,40.3
2019-02-10T06:47:08.587Z,40.2
2019-02-10T06:48:00.437Z,40.2
2019-02-10T06:48:49.252Z,40.2
2019-02-10T06:49:39.277Z,40.1
2019-02-10T06:50:29.855Z,40.1
2019-02-10T06:51:19.072Z,40.1
2019-02-10T06:52:09.677Z,40.1
2019-02-10T06:52:59.201Z,40.1
2019-02-10T06:53:49.251Z,40.1
2019-02-10T06:54:39.624Z,40.1
2019-02-10T06:55:29.351Z,40.1
2019-02-10T06:56:19.692Z,40.1
2019-02-10T06:57:10.304Z,40.1
2019-02-10T06:57:59.811Z,40.1
2019-02-10T06:58:50.663Z,40.1
2019-02-10T06:59:39.921Z,40.1
2019-02-10T07:00:30.257Z,40.1
2019-02-10T07:01:20.059Z,40.1
2019-02-10T07:02:09.808Z,40.1
2019-02-10T07:02:59.896Z,40.1
2019-02-10T07:03:49.926Z,40.1
2019-02-10T07:06:15.401Z,40.1
2019-02-10T07:07:06.841Z,40.1
2019-02-10T07:07:56.106Z,40.1
2019-02-10T07:08:46.181Z,40.1
2019-02-10T07:09:36.482Z,40.1
2019-02-10T07:10:26.508Z,40.1
2019-02-10T07:11:15.519Z,40.1
2019-02-10T07:12:06.345Z,40.1
2019-02-10T07:12:57.233Z,40.1
2019-02-10T07:13:47.016Z,40.1
2019-02-10T07:14:37.088Z,40.1
2019-02-10T07:15:26.908Z,40.1
2019-02-10T07:16:16.925Z,40.1
2019-02-10T07:17:06.965Z,40.1
2019-02-10T07:17:57.018Z,40.1
2019-02-10T07:18:47.065Z,40.1
2019-02-10T07:19:37.186Z,33.1
2019-02-10T07:21:17.292Z,19.4
2019-02-10T07:22:07.325Z,19.9
2019-02-10T07:22:57.670Z,29.9
2019-02-10T07:23:47.747Z,41.3
2019-02-10T07:24:37.237Z,47.2
2019-02-10T07:25:28.095Z,48.9
2019-02-10T07:26:17.347Z,49.4
2019-02-10T07:27:07.665Z,49.3
2019-02-10T07:27:57.982Z,49.1
2019-02-10T07:28:48.048Z,48.8
2019-02-10T07:29:37.844Z,48.5
2019-02-10T07:30:27.866Z,48.3
2019-02-10T07:31:18.269Z,47.9
2019-02-10T07:32:07.761Z,47.6
2019-02-10T07:32:58.364Z,47.4
2019-02-10T07:33:48.404Z,47.1
2019-02-10T07:34:38.462Z,46.8
2019-02-10T07:35:28.626Z,46.6
2019-02-10T07:36:18.047Z,46.4
2019-02-10T07:37:08.981Z,46.1
2019-02-10T07:37:59.008Z,45.9
2019-02-10T07:38:48.454Z,44.3
2019-02-10T07:39:38.541Z,45.5
2019-02-10T07:40:28.029Z,50.9
2019-02-10T07:41:18.412Z,53.1
2019-02-10T07:42:08.975Z,51.7
2019-02-10T07:42:58.509Z,50.1
2019-02-10T07:43:48.619Z,49.1
2019-02-10T07:44:39.152Z,48.4
2019-02-10T07:45:28.706Z,47.5
2019-02-10T07:46:19.048Z,48.9
2019-02-10T07:47:08.491Z,51.4
2019-02-10T07:48:00.271Z,52.8
2019-02-10T07:48:49.251Z,53.1
2019-02-10T07:49:39.032Z,53.1
2019-02-10T07:50:29.083Z,53.2
2019-02-10T07:51:19.626Z,53.3
2019-02-10T07:52:08.628Z,53.4
2019-02-10T07:52:58.780Z,53.6
2019-02-10T07:53:48.762Z,53.9
2019-02-10T07:54:46.827Z,54.2
2019-02-10T07:55:28.313Z,54.4
2019-02-10T07:56:19.985Z,54.4
2019-02-10T07:57:09.553Z,54.5
2019-02-10T07:57:58.838Z,54.6
2019-02-10T07:58:49.647Z,54.8
2019-02-10T07:59:39.968Z,54.9
2019-02-10T08:00:29.795Z,55.1
2019-02-10T08:01:19.845Z,55.2
2019-02-10T08:02:10.370Z,55.3
2019-02-10T08:02:59.387Z,55.3
2019-02-10T08:03:49.724Z,55.3
2019-02-10T08:04:40.335Z,55.3
2019-02-10T08:05:30.111Z,55.3
2019-02-10T08:06:19.139Z,55.4
2019-02-10T08:07:12.121Z,55.5
2019-02-10T08:08:00.295Z,55.6
2019-02-10T08:08:52.760Z,55.8
2019-02-10T08:09:40.377Z,55.9
2019-02-10T08:10:30.435Z,56
2019-02-10T08:11:20.490Z,56.1
2019-02-10T08:12:11.052Z,56.3
2019-02-10T08:13:00.846Z,56.4
2019-02-10T08:13:50.618Z,56.5
2019-02-10T08:14:41.249Z,56.6
2019-02-10T08:15:29.971Z,56.8
2019-02-10T08:16:21.076Z,56.9
2019-02-10T08:17:11.409Z,57.1
2019-02-10T08:18:00.094Z,57.3
2019-02-10T08:18:51.519Z,57.4
2019-02-10T08:19:41.899Z,57.6
2019-02-10T08:20:31.631Z,57.8
2019-02-10T08:21:22.100Z,57.9
2019-02-10T08:22:11.768Z,58.1
2019-02-10T08:23:00.981Z,58.3
2019-02-10T08:23:51.858Z,58.4
2019-02-10T08:25:32.011Z,58.8
2019-02-10T08:26:22.073Z,58.9
2019-02-10T08:27:12.380Z,59
2019-02-10T08:28:02.243Z,59.2
2019-02-10T08:28:51.755Z,59.4
2019-02-10T08:29:44.134Z,59.6
2019-02-10T08:30:32.051Z,59.7
2019-02-10T08:31:21.597Z,59.8
2019-02-10T08:32:11.893Z,59.8
2019-02-10T08:33:02.228Z,59.9
2019-02-10T08:33:52.558Z,60.1
2019-02-10T08:34:41.315Z,60.1
2019-02-10T08:35:33.168Z,60.2
2019-02-10T08:36:22.454Z,60.2
2019-02-10T08:37:12.532Z,60.3
2019-02-10T08:38:02.038Z,60.3
2019-02-10T08:39:00.359Z,60.4
2019-02-10T08:39:42.685Z,60.6
2019-02-10T08:40:32.335Z,60.8
2019-02-10T08:41:22.821Z,61
2019-02-10T08:42:12.582Z,61.3
2019-02-10T08:43:03.199Z,61.4
2019-02-10T08:43:52.497Z,61.5
2019-02-10T08:44:42.559Z,61.6
2019-02-10T08:45:32.539Z,61.8
2019-02-10T08:46:23.427Z,61.9
2019-02-10T08:47:13.479Z,62.1
2019-02-10T08:48:03.889Z,62.2
2019-02-10T08:48:53.342Z,62.4
2019-02-10T08:49:43.335Z,62.4
2019-02-10T08:50:33.193Z,62.5
2019-02-10T08:51:23.505Z,62.6
2019-02-10T08:52:13.276Z,62.7
2019-02-10T08:53:02.872Z,62.8
2019-02-10T08:53:53.669Z,62.8
2019-02-10T08:54:44.014Z,62.8
2019-02-10T08:55:33.851Z,62.8
2019-02-10T08:56:24.134Z,62.8
2019-02-10T08:57:14.201Z,62.8
2019-02-10T08:58:03.232Z,62.8
2019-02-10T08:58:53.764Z,62.9
2019-02-10T08:59:44.097Z,63
2019-02-10T09:00:33.926Z,63.2
2019-02-10T09:01:23.956Z,63.3
2019-02-10T09:02:14.326Z,63.5
2019-02-10T09:03:04.893Z,63.7
2019-02-10T09:03:54.440Z,63.9
2019-02-10T09:04:44.783Z,64
2019-02-10T09:05:34.503Z,64.1
2019-02-10T09:06:23.750Z,64.1
2019-02-10T09:07:16.892Z,64.1
2019-02-10T09:08:05.268Z,64.1
2019-02-10T09:09:03.438Z,64.1
2019-02-10T09:09:45.101Z,64.2
2019-02-10T09:10:34.888Z,64.2
2019-02-10T09:11:24.675Z,64.2
2019-02-10T09:12:15.300Z,64.3
2019-02-10T09:13:05.302Z,64.4
2019-02-10T09:13:55.144Z,64.7
2019-02-10T09:14:44.587Z,64.9
2019-02-10T09:15:35.730Z,65.2
2019-02-10T09:16:24.770Z,65.4
2019-02-10T09:17:15.313Z,65.5
2019-02-10T09:18:05.725Z,65.5
2019-02-10T09:18:55.427Z,65.4
2019-02-10T09:19:45.493Z,65.4
2019-02-10T09:20:34.985Z,65.3
2019-02-10T09:21:25.315Z,65.2
2019-02-10T09:22:15.933Z,65.2
2019-02-10T09:23:05.992Z,65.3
2019-02-10T09:23:56.317Z,65.6
2019-02-10T09:24:45.547Z,65.8
2019-02-10T09:25:36.447Z,66
2019-02-10T09:26:25.927Z,66.2
2019-02-10T09:27:16.266Z,66.3
2019-02-10T09:28:06.044Z,66.4
2019-02-10T09:28:56.379Z,66.5
2019-02-10T09:29:45.952Z,66.6
2019-02-10T09:30:35.692Z,66.7
2019-02-10T09:31:26.864Z,66.8
2019-02-10T09:32:16.349Z,67
2019-02-10T09:33:06.129Z,67.1
2019-02-10T09:33:56.199Z,67.1
2019-02-10T09:34:46.246Z,67.3
2019-02-10T09:35:36.306Z,67.3
2019-02-10T09:36:26.957Z,67.4
2019-02-10T09:37:16.477Z,67.6
2019-02-10T09:38:06.481Z,67.8
2019-02-10T09:38:56.859Z,67.8
2019-02-10T09:39:46.887Z,67.8
2019-02-10T09:40:37.234Z,67.8
2019-02-10T09:41:27.547Z,67.9
2019-02-10T09:42:16.781Z,67.9
2019-02-10T09:43:07.124Z,68
2019-02-10T09:43:56.894Z,68.1
2019-02-10T09:44:46.957Z,68.1
2019-02-10T09:45:37.261Z,68.1
2019-02-10T09:46:27.961Z,68.1
2019-02-10T09:47:17.385Z,68.2
2019-02-10T09:48:07.758Z,68.3
2019-02-10T09:48:58.049Z,68.3
2019-02-10T09:49:47.345Z,68.2
2019-02-10T09:50:37.363Z,68.2
2019-02-10T09:51:28.238Z,68.1
2019-02-10T09:52:17.442Z,68.1
2019-02-10T09:53:07.325Z,68.1
2019-02-10T09:53:58.150Z,68.1
2019-02-10T09:54:47.898Z,68.1
2019-02-10T09:55:38.255Z,68.1
2019-02-10T09:56:28.312Z,68
2019-02-10T09:57:17.803Z,67.9
2019-02-10T09:58:08.126Z,67.9
2019-02-10T09:58:58.478Z,68
2019-02-10T09:59:48.253Z,68.1
2019-02-10T10:00:38.612Z,68.3
2019-02-10T10:01:28.690Z,68.5
2019-02-10T10:02:18.804Z,68.6
2019-02-10T10:03:09.057Z,68.7
2019-02-10T10:03:59.150Z,68.8
2019-02-10T10:04:48.887Z,68.8
2019-02-10T10:07:16.677Z,69
2019-02-10T10:08:06.467Z,69.1
2019-02-10T10:08:56.787Z,69.1
2019-02-10T10:09:46.559Z,69
2019-02-10T10:10:36.352Z,68.9
2019-02-10T10:11:26.942Z,69
2019-02-10T10:12:16.464Z,69.1
2019-02-10T10:13:07.095Z,69.2
2019-02-10T10:13:56.279Z,69.2
2019-02-10T10:14:46.367Z,69.3
2019-02-10T10:15:37.236Z,69.3
2019-02-10T10:16:27.022Z,69.2
2019-02-10T10:17:17.079Z,69.1
2019-02-10T10:18:06.604Z,68.9
2019-02-10T10:18:56.983Z,68.8
2019-02-10T10:19:46.693Z,68.6
2019-02-10T10:20:37.581Z,68.1
2019-02-10T10:21:26.851Z,67.1
2019-02-10T10:22:17.421Z,65.9
2019-02-10T10:23:06.958Z,64.7
2019-02-10T10:23:57.581Z,63.9
2019-02-10T10:24:55.631Z,63.2
2019-02-10T10:25:37.356Z,62.5
2019-02-10T10:26:28.000Z,62.1
2019-02-10T10:27:17.783Z,61.7
2019-02-10T10:28:08.149Z,61.4
2019-02-10T10:28:57.968Z,61.2
2019-02-10T10:29:48.212Z,61.2
2019-02-10T10:30:38.271Z,61.1
2019-02-10T10:31:28.326Z,61.2
2019-02-10T10:32:18.458Z,61.3
2019-02-10T10:33:08.168Z,61.4
2019-02-10T10:33:57.745Z,61.6
2019-02-10T10:34:48.270Z,61.8
2019-02-10T10:35:38.326Z,62
2019-02-10T10:36:28.724Z,62.2
2019-02-10T10:37:18.862Z,62.3
2019-02-10T10:38:08.239Z,62.3
2019-02-10T10:38:58.573Z,62.4
2019-02-10T10:39:48.631Z,62.4
2019-02-10T10:40:38.817Z,62.4
2019-02-10T10:41:29.055Z,62.3
2019-02-10T10:42:18.824Z,62.1
2019-02-10T10:43:08.925Z,62
2019-02-10T10:43:59.208Z,62
2019-02-10T10:44:49.261Z,62.1
2019-02-10T10:45:39.031Z,62.1
2019-02-10T10:46:29.378Z,61.9
2019-02-10T10:47:19.421Z,61.9
2019-02-10T10:48:08.935Z,61.9
2019-02-10T10:48:59.281Z,61.7
2019-02-10T10:49:49.106Z,61.6
2019-02-10T10:50:39.664Z,61.5
2019-02-10T10:51:29.435Z,61.6
2019-02-10T10:52:19.533Z,61.7
2019-02-10T10:53:09.108Z,61.8
2019-02-10T10:53:59.382Z,62.1
2019-02-10T10:54:49.943Z,62.4
2019-02-10T10:55:39.750Z,62.6
2019-02-10T10:56:29.597Z,62.8
2019-02-10T10:57:21.833Z,63
2019-02-10T10:58:10.184Z,63.3
2019-02-10T10:59:00.237Z,63.4
2019-02-10T10:59:50.280Z,63.6
2019-02-10T11:00:40.080Z,63.8
2019-02-10T11:01:31.965Z,64
2019-02-10T11:02:20.459Z,64.2
2019-02-10T11:03:09.769Z,64.3
2019-02-10T11:04:00.587Z,64.5
2019-02-10T11:04:50.665Z,64.6
2019-02-10T11:05:40.152Z,64.8
2019-02-10T11:06:30.776Z,64.9
2019-02-10T11:07:20.544Z,65
2019-02-10T11:08:10.057Z,65.1
2019-02-10T11:09:00.710Z,65.1
2019-02-10T11:09:50.716Z,65.2
2019-02-10T11:10:41.062Z,65.3
2019-02-10T11:11:31.119Z,65.5
2019-02-10T11:12:20.126Z,65.8
2019-02-10T11:13:10.958Z,65.9
2019-02-10T11:14:00.986Z,66.1
2019-02-10T11:14:51.343Z,66.1
2019-02-10T11:15:41.126Z,66.3
2019-02-10T11:16:31.096Z,66.3
2019-02-10T11:17:20.977Z,66.3
2019-02-10T11:18:11.034Z,66.3
2019-02-10T11:19:01.162Z,66.3
2019-02-10T11:19:51.479Z,66.2
2019-02-10T11:20:41.258Z,66.1
2019-02-10T11:21:30.542Z,66.1
2019-02-10T11:22:20.818Z,66.2
2019-02-10T11:23:10.894Z,66.2
2019-02-10T11:24:01.979Z,66.4
2019-02-10T11:24:51.551Z,66.4
2019-02-10T11:25:41.128Z,66.6
2019-02-10T11:26:31.671Z,66.7
2019-02-10T11:27:21.798Z,66.8
2019-02-10T11:28:11.481Z,66.9
2019-02-10T11:29:01.541Z,67.1
2019-02-10T11:29:51.608Z,67.2
2019-02-10T11:30:41.958Z,67.3
2019-02-10T11:31:31.806Z,67.5
2019-02-10T11:32:21.812Z,67.6
2019-02-10T11:33:11.853Z,67.7
2019-02-10T11:34:02.169Z,67.7
2019-02-10T11:34:51.417Z,67.4
2019-02-10T11:35:41.787Z,66.9
2019-02-10T11:36:32.391Z,66.3
2019-02-10T11:37:32.135Z,65.8
2019-02-10T11:38:12.497Z,65.5
2019-02-10T11:39:02.540Z,65.4
2019-02-10T11:39:52.602Z,65.4
2019-02-10T11:40:42.075Z,65.4
2019-02-10T11:41:32.431Z,65.3
2019-02-10T11:42:22.772Z,65.1
2019-02-10T11:43:12.802Z,64.9
2019-02-10T11:44:02.042Z,64.8
2019-02-10T11:44:52.664Z,64.7
2019-02-10T11:45:42.990Z,64.7
2019-02-10T11:46:32.474Z,64.8
2019-02-10T11:47:22.847Z,64.8
2019-02-10T11:48:13.755Z,64.9
2019-02-10T11:49:03.233Z,65.1
2019-02-10T11:49:52.729Z,65.2
2019-02-10T11:50:43.402Z,65.3
2019-02-10T11:51:32.861Z,65.4
2019-02-10T11:52:23.434Z,65.6
2019-02-10T11:53:13.219Z,65.8
2019-02-10T11:54:03.282Z,65.9
2019-02-10T11:54:53.384Z,65.9
2019-02-10T11:55:43.692Z,66
2019-02-10T11:56:33.754Z,66
2019-02-10T11:57:23.524Z,66
2019-02-10T11:58:13.851Z,66.1
2019-02-10T11:59:18.511Z,66.1
2019-02-10T11:59:53.976Z,66.3
2019-02-10T12:00:44.076Z,66.3
2019-02-10T12:01:33.336Z,66.3
2019-02-10T12:02:24.061Z,66.1
2019-02-10T12:03:14.414Z,66
2019-02-10T12:04:43.601Z,65.8
2019-02-10T12:07:15.745Z,65.3
2019-02-10T12:08:05.754Z,65.4
2019-02-10T12:08:56.083Z,65.5
2019-02-10T12:10:00.814Z,65.4
2019-02-10T12:10:36.189Z,65.3
2019-02-10T12:11:41.188Z,65.3
2019-02-10T12:12:16.090Z,65.1
2019-02-10T12:13:06.388Z,65.1
2019-02-10T12:13:56.705Z,65
2019-02-10T12:14:46.523Z,65.1
2019-02-10T12:15:35.968Z,65.1
2019-02-10T12:16:25.228Z,65.3
2019-02-10T12:17:16.865Z,65.3
2019-02-10T12:18:06.465Z,65.3
2019-02-10T12:18:57.045Z,65.3
2019-02-10T12:19:46.285Z,65.4
2019-02-10T12:20:36.955Z,65.3
2019-02-10T12:21:26.383Z,65.3
2019-02-10T12:22:17.205Z,65.1
2019-02-10T12:23:22.021Z,65
2019-02-10T12:23:57.472Z,65.1
2019-02-10T12:24:47.187Z,65.1
2019-02-10T12:25:37.833Z,65.3
2019-02-10T12:26:27.330Z,65.4
2019-02-10T12:27:17.910Z,65.5
2019-02-10T12:28:07.152Z,65.5
2019-02-10T12:28:57.488Z,65.4
2019-02-10T12:29:47.262Z,65.3
2019-02-10T12:30:37.600Z,65.1
2019-02-10T12:31:27.969Z,64.9
2019-02-10T12:32:17.982Z,64.7
2019-02-10T12:33:07.802Z,64.5
2019-02-10T12:33:57.914Z,64.4
2019-02-10T12:34:48.216Z,64.3
2019-02-10T12:35:37.664Z,64.2
2019-02-10T12:36:28.759Z,64.1
2019-02-10T12:37:17.819Z,64.1
2019-02-10T12:38:08.169Z,64.1
2019-02-10T12:38:58.677Z,64
2019-02-10T12:39:47.712Z,64
2019-02-10T12:40:38.394Z,64
2019-02-10T12:41:28.800Z,64.1
2019-02-10T12:42:17.854Z,64.1
2019-02-10T12:43:09.053Z,64.1
2019-02-10T12:43:58.291Z,63.9
2019-02-10T12:44:48.864Z,63.8
2019-02-10T12:45:38.652Z,63.6
2019-02-10T12:46:28.996Z,63.3
2019-02-10T12:47:18.776Z,63
2019-02-10T12:48:15.370Z,62.8
2019-02-10T12:48:59.158Z,62.6
2019-02-10T12:49:49.575Z,62.3
2019-02-10T12:50:38.719Z,62.1
2019-02-10T12:51:29.346Z,61.8
2019-02-10T12:52:19.153Z,61.5
2019-02-10T12:53:09.710Z,61.2
2019-02-10T12:53:59.237Z,60.9
2019-02-10T12:54:48.435Z,60.6
2019-02-10T12:55:39.619Z,60.4
2019-02-10T12:56:29.684Z,60.3
2019-02-10T12:57:18.665Z,60.3
2019-02-10T12:58:09.522Z,60.3
2019-02-10T12:58:59.307Z,60.2
2019-02-10T12:59:49.891Z,60.1
2019-02-10T13:00:41.525Z,60.1
2019-02-10T13:01:28.614Z,60.1
2019-02-10T13:02:19.795Z,60.1
2019-02-10T13:03:10.425Z,60.1
2019-02-10T13:04:00.239Z,60.1
2019-02-10T13:04:50.552Z,60.1
2019-02-10T13:05:39.770Z,60.1
2019-02-10T13:06:30.118Z,60.1
2019-02-10T13:07:19.597Z,60.1
2019-02-10T13:08:10.220Z,60
2019-02-10T13:09:00.077Z,59.9
2019-02-10T13:09:50.340Z,59.8
2019-02-10T13:10:40.111Z,59.8
2019-02-10T13:11:30.999Z,59.7
2019-02-10T13:12:20.518Z,59.5
2019-02-10T13:13:09.782Z,59.3
2019-02-10T13:14:00.327Z,59.1
2019-02-10T13:14:50.111Z,59
2019-02-10T13:15:40.464Z,59
2019-02-10T13:16:31.337Z,59
2019-02-10T13:17:20.904Z,59.1
2019-02-10T13:18:11.476Z,59.1
2019-02-10T13:19:01.524Z,59.3
2019-02-10T13:19:50.471Z,59.3
2019-02-10T13:20:40.811Z,59.4
2019-02-10T13:21:30.311Z,59.6
2019-02-10T13:22:20.981Z,59.6
2019-02-10T13:23:10.434Z,59.7
2019-02-10T13:24:01.036Z,59.8
2019-02-10T13:24:51.383Z,59.8
2019-02-10T13:25:41.721Z,59.8
2019-02-10T13:26:30.791Z,59.8
2019-02-10T13:27:21.283Z,59.8
2019-02-10T13:28:11.333Z,59.8
2019-02-10T13:29:01.945Z,59.8
2019-02-10T13:29:51.728Z,59.8
2019-02-10T13:30:42.351Z,59.7
2019-02-10T13:31:31.607Z,59.6
2019-02-10T13:32:21.904Z,59.4
2019-02-10T13:33:12.175Z,59.2
2019-02-10T13:34:02.086Z,59.1
2019-02-10T13:34:52.611Z,59.1
2019-02-10T13:35:42.405Z,59
2019-02-10T13:36:32.198Z,58.9
2019-02-10T13:37:22.280Z,58.8
2019-02-10T13:38:12.593Z,58.7
2019-02-10T13:39:52.432Z,58.4
2019-02-10T13:40:42.510Z,58.3
2019-02-10T13:41:32.537Z,58.1
2019-02-10T13:42:22.890Z,58
2019-02-10T13:43:12.655Z,57.9
2019-02-10T13:44:52.847Z,57.6
2019-02-10T13:45:42.344Z,57.4
2019-02-10T13:46:33.449Z,57.3
2019-02-10T13:47:23.495Z,57.1
2019-02-10T13:48:13.027Z,56.9
2019-02-10T13:49:02.787Z,56.8
2019-02-10T13:49:53.397Z,56.6
2019-02-10T13:50:42.907Z,56.6
2019-02-10T13:51:33.310Z,56.4
2019-02-10T13:52:22.474Z,56.4
2019-02-10T13:53:14.844Z,56.3
2019-02-10T13:54:03.972Z,56.2
2019-02-10T13:54:53.821Z,56.1
2019-02-10T13:55:43.811Z,56.1
2019-02-10T13:56:33.863Z,55.9
2019-02-10T13:57:23.176Z,55.9
2019-02-10T13:58:13.011Z,55.8
2019-02-10T13:59:04.064Z,55.8
2019-02-10T13:59:53.561Z,55.7
2019-02-10T14:00:44.153Z,55.6
2019-02-10T14:01:34.021Z,55.4
2019-02-10T14:02:24.008Z,55.4
2019-02-10T14:03:12.754Z,55.3
2019-02-10T14:04:03.906Z,55.2
2019-02-10T14:04:54.186Z,55.1
2019-02-10T14:05:44.514Z,55
2019-02-10T14:08:16.148Z,54.7
2019-02-10T14:09:07.271Z,54.6
2019-02-10T14:09:55.981Z,54.4
2019-02-10T14:10:46.135Z,54.3
2019-02-10T14:11:35.631Z,54.2
2019-02-10T14:12:25.938Z,54.2
2019-02-10T14:13:16.185Z,54.1
2019-02-10T14:14:06.819Z,54.1
2019-02-10T14:14:56.343Z,54
2019-02-10T14:15:46.392Z,53.9
2019-02-10T14:16:36.518Z,53.8
2019-02-10T14:17:26.212Z,53.6
2019-02-10T14:18:16.342Z,53.4
2019-02-10T14:19:06.103Z,53.2
2019-02-10T14:19:56.942Z,52.9
2019-02-10T14:20:46.715Z,52.6
2019-02-10T14:21:36.800Z,52.1
2019-02-10T14:22:26.403Z,51.4
2019-02-10T14:23:16.905Z,50.5
2019-02-10T14:24:07.233Z,49.3
2019-02-10T14:24:57.300Z,48.1
2019-02-10T14:25:46.538Z,46.7
2019-02-10T14:26:37.169Z,45.5
2019-02-10T14:27:26.647Z,44.3
2019-02-10T14:28:17.572Z,43.3